YSWG/WGA METAR and TAF weather

Enter ICAO airport designator
Station Type Date Time Source
YSWG METAR 2019/04/20 18:00 UTC NOAA

YSWG 201800Z AUTO 10006KT 9999 // NCD 17/11 Q1021


Station Type Date Time Source
YSWG Decoded METAR 2019/04/20 18:00 UTC NOAA

Wagga Airport, Australia (YSWG) 35-09S 147-27E 213M
Apr 20, 2019 - 02:00 PM EDT / 2019.04.20 1800 UTC
Wind: from the E (100 degrees) at 7 MPH (6 KT):0
Visibility: greater than 7 mile(s):0
Temperature: 62 F (17 C)
Dew Point: 51 F (11 C)
Relative Humidity: 67%
Pressure (altimeter): 30.15 in. Hg (1021 hPa)
ob: YSWG 201800Z AUTO 10006KT 9999 // NCD 17/11 Q1021
cycle: 18

Station Type Date Time Source
YSWG TAF 2018/05/25 18:03 UTC NOAA

TAF YSWG 251649Z 2518/2608 07008KT CAVOK

Example: see airport list